Time;durP1;ratioP1;P1;durP2;ratioP2;P2;SDS_P1;SDS_P2;PMS_P1;PMS_P2;Temp;Humidity;BMP_temperature;BMP_pressure;BME280_temperature;BME280_humidity;BME280_pressure;Samples;Min_cycle;Max_cycle;Signal;HPM_P1;HPM_P2
2021/11/08 00:01:46;;;;;;;11.27;4.67;;;8.50;99.90;;;;;;4916863;29;20484;-61
2021/11/08 00:04:14;;;;;;;13.00;5.20;;;8.50;99.90;;;;;;4917178;29;20485;-61
2021/11/08 00:06:42;;;;;;;17.67;5.90;;;8.50;99.90;;;;;;4916481;29;20540;-61
2021/11/08 00:09:11;;;;;;;14.77;5.20;;;8.50;99.90;;;;;;4916812;29;20815;-60
2021/11/08 00:11:40;;;;;;;10.63;5.13;;;8.50;99.90;;;;;;4916624;29;20552;-60
2021/11/08 00:14:12;;;;;;;16.77;5.60;;;8.50;99.90;;;;;;4916645;29;20418;-60
2021/11/08 00:16:45;;;;;;;10.47;4.73;;;8.50;99.90;;;;;;4916307;29;20896;-60
2021/11/08 00:19:33;;;;;;;13.43;5.00;;;8.50;99.90;;;;;;4916774;29;20474;-60
2021/11/08 00:22:02;;;;;;;20.90;6.23;;;8.50;99.90;;;;;;4916318;29;20474;-60
2021/11/08 00:24:32;;;;;;;14.77;5.50;;;8.40;99.90;;;;;;4918781;29;20480;-61
2021/11/08 00:27:01;;;;;;;17.83;5.00;;;8.50;99.90;;;;;;4921897;29;20582;-61
2021/11/08 00:29:30;;;;;;;21.97;6.90;;;8.40;99.90;;;;;;4916600;29;20245;-61
2021/11/08 00:32:00;;;;;;;12.38;5.07;;;8.40;99.90;;;;;;4916148;29;20557;-60
2021/11/08 00:34:30;;;;;;;21.77;6.22;;;8.40;99.90;;;;;;4915112;29;20274;-60
2021/11/08 00:36:58;;;;;;;10.33;5.17;;;8.40;99.90;;;;;;4915789;29;20782;-61
2021/11/08 00:39:26;;;;;;;16.07;5.43;;;8.30;99.90;;;;;;4916295;29;20952;-61
2021/11/08 00:41:55;;;;;;;13.40;5.40;;;8.30;99.90;;;;;;4915846;29;20509;-61
2021/11/08 00:44:23;;;;;;;15.43;5.90;;;8.30;99.90;;;;;;4916117;29;20495;-61
2021/11/08 00:46:52;;;;;;;19.00;7.00;;;8.30;99.90;;;;;;4915664;29;20471;-60
2021/11/08 00:49:20;;;;;;;13.47;4.87;;;8.30;99.90;;;;;;4916582;29;20424;-61
2021/11/08 00:51:50;;;;;;;20.43;6.40;;;8.30;99.90;;;;;;4915692;29;20469;-61
2021/11/08 00:54:18;;;;;;;20.90;5.70;;;8.20;99.90;;;;;;4915944;29;20471;-61
2021/11/08 00:56:48;;;;;;;14.20;6.50;;;8.30;99.90;;;;;;4915549;29;20500;-61
2021/11/08 00:59:17;;;;;;;16.30;6.17;;;8.30;99.90;;;;;;4915621;29;20772;-61
2021/11/08 01:01:47;;;;;;;16.33;6.75;;;8.20;99.90;;;;;;4915610;29;20469;-61
2021/11/08 01:04:20;;;;;;;20.50;5.73;;;8.20;99.90;;;;;;4916128;29;20296;-60
2021/11/08 01:06:53;;;;;;;15.55;5.80;;;8.20;99.90;;;;;;4915518;29;20471;-60
2021/11/08 01:09:21;;;;;;;23.30;6.40;;;8.20;99.90;;;;;;4916092;29;20616;-61
2021/11/08 01:11:49;;;;;;;16.73;4.80;;;8.10;99.90;;;;;;4928211;29;20511;-61
2021/11/08 01:14:17;;;;;;;24.33;5.30;;;8.20;99.90;;;;;;4934968;29;20439;-60
2021/11/08 01:16:46;;;;;;;10.77;5.20;;;8.20;99.90;;;;;;4934254;29;20464;-61
2021/11/08 01:19:14;;;;;;;20.45;6.32;;;8.10;99.90;;;;;;4933021;29;20799;-60
2021/11/08 01:21:42;;;;;;;17.50;6.47;;;8.00;99.90;;;;;;4915235;29;20251;-60
2021/11/08 01:24:13;;;;;;;12.60;5.10;;;8.00;99.90;;;;;;4915511;29;20192;-61
2021/11/08 01:26:41;;;;;;;21.08;5.00;;;8.00;99.90;;;;;;4915168;29;20232;-60
2021/11/08 01:29:11;;;;;;;20.85;6.05;;;8.00;99.90;;;;;;4915952;29;20201;-60
2021/11/08 01:31:39;;;;;;;18.75;5.88;;;8.10;99.90;;;;;;4915229;29;20224;-60
2021/11/08 01:34:07;;;;;;;13.73;6.07;;;8.10;99.90;;;;;;4898614;29;20725;-61
2021/11/08 01:36:37;;;;;;;15.48;6.50;;;8.00;99.90;;;;;;4915123;29;20244;-61
2021/11/08 01:39:14;;;;;;;11.57;6.85;;;7.90;99.90;;;;;;4915751;29;20208;-61
2021/11/08 01:41:46;;;;;;;11.98;5.30;;;8.00;99.90;;;;;;4914821;29;20311;-61
2021/11/08 01:44:15;;;;;;;9.10;5.00;;;7.90;99.90;;;;;;4915650;29;20227;-61
2021/11/08 01:46:44;;;;;;;11.53;4.87;;;8.00;99.90;;;;;;4915071;29;20319;-61
2021/11/08 01:49:12;;;;;;;16.97;5.90;;;8.00;99.90;;;;;;4914404;29;20426;-60
2021/11/08 01:51:40;;;;;;;17.73;6.17;;;8.00;99.90;;;;;;4913797;29;20465;-60
2021/11/08 01:54:09;;;;;;;15.00;5.22;;;8.00;99.90;;;;;;4915239;29;20492;-61
2021/11/08 01:56:37;;;;;;;10.40;4.78;;;8.00;99.90;;;;;;4914910;29;20645;-60
2021/11/08 01:59:07;;;;;;;15.93;5.63;;;8.10;99.90;;;;;;4915715;29;20616;-61
2021/11/08 02:01:38;;;;;;;12.30;5.27;;;8.10;99.90;;;;;;4914968;29;20521;-60
2021/11/08 02:04:06;;;;;;;11.20;5.63;;;8.10;99.90;;;;;;4915262;29;20490;-60
2021/11/08 02:06:34;;;;;;;12.63;5.00;;;8.10;99.90;;;;;;4914894;29;20456;-62
2021/11/08 02:09:03;;;;;;;13.80;7.33;;;8.10;99.90;;;;;;4915592;29;20853;-60
2021/11/08 02:11:33;;;;;;;19.20;5.97;;;8.10;99.90;;;;;;4915498;29;20488;-61
2021/11/08 02:14:02;;;;;;;12.63;4.90;;;8.20;99.90;;;;;;4917744;29;20453;-61
2021/11/08 02:16:32;;;;;;;18.93;6.13;;;8.10;99.90;;;;;;4918328;29;20476;-60
2021/11/08 02:19:01;;;;;;;18.57;6.40;;;8.10;99.90;;;;;;4918001;29;20511;-61
2021/11/08 02:21:31;;;;;;;19.37;5.27;;;8.20;99.90;;;;;;4918500;29;20461;-60
2021/11/08 02:24:02;;;;;;;9.77;4.70;;;8.20;99.90;;;;;;4918818;29;20433;-61
2021/11/08 02:26:31;;;;;;;13.20;6.03;;;8.20;99.90;;;;;;4926658;29;20481;-60
2021/11/08 02:28:59;;;;;;;18.53;7.13;;;8.20;99.90;;;;;;4918690;29;20429;-60
2021/11/08 02:31:29;;;;;;;17.87;6.30;;;8.20;99.90;;;;;;4918195;29;21039;-61
2021/11/08 02:33:57;;;;;;;10.43;5.03;;;8.20;99.90;;;;;;4918468;29;20488;-61
2021/11/08 02:36:25;;;;;;;16.37;6.30;;;8.30;99.90;;;;;;4918056;29;20469;-60
2021/11/08 02:38:57;;;;;;;16.43;6.30;;;8.30;99.90;;;;;;4918452;29;20480;-60
2021/11/08 02:41:26;;;;;;;15.40;6.30;;;8.30;99.90;;;;;;4918061;29;20491;-61
2021/11/08 02:43:56;;;;;;;13.63;5.33;;;8.30;99.90;;;;;;4918430;29;20456;-61
2021/11/08 02:46:27;;;;;;;13.30;5.73;;;8.30;99.90;;;;;;4918107;29;20465;-61
2021/11/08 02:48:58;;;;;;;21.53;6.40;;;8.30;99.90;;;;;;4918459;29;20484;-60
2021/11/08 02:51:28;;;;;;;22.53;6.60;;;8.30;99.90;;;;;;4917937;29;20491;-61
2021/11/08 02:54:02;;;;;;;11.27;5.43;;;8.30;99.90;;;;;;4917044;29;20484;-60
2021/11/08 02:56:30;;;;;;;10.80;4.70;;;8.30;99.90;;;;;;4918041;29;20891;-61
2021/11/08 02:58:59;;;;;;;22.73;6.57;;;8.40;99.90;;;;;;4918387;29;20843;-61
2021/11/08 03:01:28;;;;;;;22.60;6.90;;;8.30;99.90;;;;;;4917803;29;20983;-61
2021/11/08 03:03:57;;;;;;;20.00;6.10;;;8.30;99.90;;;;;;4918128;29;20433;-61
2021/11/08 03:06:30;;;;;;;18.07;6.47;;;8.40;99.90;;;;;;4917564;29;20473;-61
2021/11/08 03:09:06;;;;;;;12.63;5.20;;;8.40;99.90;;;;;;4918242;29;20848;-61
2021/11/08 03:11:34;;;;;;;17.93;6.37;;;8.30;99.90;;;;;;4917340;29;20485;-61
2021/11/08 03:14:04;;;;;;;14.10;6.33;;;8.30;99.90;;;;;;4916579;29;20455;-60
2021/11/08 03:16:39;;;;;;;16.53;5.73;;;8.30;99.90;;;;;;4935423;29;20488;-60
2021/11/08 03:19:16;;;;;;;14.97;5.83;;;8.30;99.90;;;;;;4936760;29;20562;-61
2021/11/08 03:21:46;;;;;;;18.23;6.77;;;8.30;99.90;;;;;;4917863;29;20473;-60
2021/11/08 03:24:19;;;;;;;14.23;7.30;;;8.40;99.90;;;;;;4917708;29;20485;-61
2021/11/08 03:26:49;;;;;;;12.47;5.73;;;8.30;99.90;;;;;;4923990;29;20481;-61
2021/11/08 03:29:18;;;;;;;21.40;7.40;;;8.40;99.90;;;;;;4917677;29;20420;-61
2021/11/08 03:31:49;;;;;;;14.30;6.10;;;8.40;99.90;;;;;;4917232;29;20480;-61
2021/11/08 03:34:18;;;;;;;15.23;6.30;;;8.30;99.90;;;;;;4917913;29;20449;-60
2021/11/08 03:36:49;;;;;;;27.37;6.87;;;8.40;99.90;;;;;;4916956;29;20481;-61
2021/11/08 03:39:19;;;;;;;20.40;6.23;;;8.40;99.90;;;;;;4917624;29;20884;-60
2021/11/08 03:41:47;;;;;;;25.73;8.43;;;8.40;99.90;;;;;;4916855;29;20982;-61
2021/11/08 03:44:16;;;;;;;17.80;7.27;;;8.40;99.90;;;;;;4917225;29;20444;-61
2021/11/08 03:46:44;;;;;;;19.97;7.53;;;8.40;99.90;;;;;;4916859;29;20473;-61
2021/11/08 03:49:12;;;;;;;19.83;7.00;;;8.40;99.90;;;;;;4917572;29;20425;-61
2021/11/08 03:51:40;;;;;;;20.47;6.63;;;8.50;99.90;;;;;;4916909;29;20943;-60
2021/11/08 03:54:08;;;;;;;14.87;6.47;;;8.40;99.90;;;;;;4916943;29;20440;-61
2021/11/08 03:56:38;;;;;;;19.00;6.67;;;8.50;99.90;;;;;;4916388;29;20569;-61
2021/11/08 03:59:06;;;;;;;19.80;6.63;;;8.40;99.90;;;;;;4917343;29;20504;-61
2021/11/08 04:01:36;;;;;;;24.20;8.07;;;8.40;99.90;;;;;;4915354;29;21002;-61
2021/11/08 04:04:05;;;;;;;19.90;6.53;;;8.30;99.90;;;;;;4931598;29;20440;-60
2021/11/08 04:06:34;;;;;;;19.10;6.53;;;8.40;99.90;;;;;;4923982;29;20481;-61
2021/11/08 04:09:06;;;;;;;17.70;6.00;;;8.40;99.90;;;;;;4916858;29;20422;-61
2021/11/08 04:11:35;;;;;;;18.47;6.97;;;8.40;99.90;;;;;;4916193;29;20962;-61
2021/11/08 04:14:05;;;;;;;17.33;6.00;;;8.40;99.90;;;;;;4916676;29;20857;-60
2021/11/08 04:16:34;;;;;;;19.03;6.97;;;8.40;99.90;;;;;;4915983;29;20517;-61
2021/11/08 04:19:03;;;;;;;13.30;6.17;;;8.40;99.90;;;;;;4916940;29;20464;-61
2021/11/08 04:21:32;;;;;;;22.73;7.33;;;8.40;99.90;;;;;;4916236;29;20475;-60
2021/11/08 04:24:01;;;;;;;25.13;6.57;;;8.40;99.90;;;;;;4916686;29;20434;-60
2021/11/08 04:26:30;;;;;;;19.30;6.93;;;8.40;99.90;;;;;;4924698;29;20485;-61
2021/11/08 04:29:01;;;;;;;14.70;7.20;;;8.40;99.90;;;;;;4915565;29;20454;-60
2021/11/08 04:31:33;;;;;;;15.90;8.47;;;8.50;99.90;;;;;;4916179;29;20493;-62
2021/11/08 04:34:04;;;;;;;12.90;6.87;;;8.50;99.90;;;;;;4916126;29;20449;-61
2021/11/08 04:36:46;;;;;;;16.90;6.57;;;8.50;99.90;;;;;;4899264;29;20477;-61
2021/11/08 04:39:22;;;;;;;16.23;6.00;;;8.40;99.90;;;;;;4916485;29;20563;-61
2021/11/08 04:41:56;;;;;;;19.67;6.90;;;8.50;99.90;;;;;;4899192;29;20489;-61
2021/11/08 04:44:47;;;;;;;26.97;7.20;;;8.40;99.90;;;;;;4916023;29;20437;-60
2021/11/08 04:50:11;;;;;;;16.60;6.57;;;8.40;99.90;;;;;;4915945;29;20463;-60
2021/11/08 04:52:57;;;;;;;17.10;6.70;;;8.40;99.90;;;;;;4914984;29;20413;-60
2021/11/08 04:55:34;;;;;;;16.63;6.60;;;8.40;99.90;;;;;;4915707;29;20682;-62
2021/11/08 04:58:34;;;;;;;15.00;5.83;;;8.40;99.90;;;;;;4916073;29;20477;-61
2021/11/08 05:23:32;;;;;;;21.43;8.33;;;8.50;99.90;;;;;;4932797;29;20455;-60
2021/11/08 05:29:54;;;;;;;19.80;9.03;;;8.50;99.90;;;;;;4915834;29;20444;-61
2021/11/08 05:31:34;;;;;;;21.60;8.10;;;8.50;99.90;;;;;;4915089;29;20468;-61
2021/11/08 05:34:02;;;;;;;17.57;7.10;;;8.50;99.90;;;;;;4915461;29;20445;-61
2021/11/08 05:36:31;;;;;;;23.00;8.07;;;8.50;99.90;;;;;;4914160;29;20528;-61
2021/11/08 05:39:00;;;;;;;18.05;7.28;;;8.50;99.90;;;;;;4915773;29;20495;-61
2021/11/08 05:41:28;;;;;;;21.20;7.50;;;8.50;99.90;;;;;;4915335;29;20749;-61
2021/11/08 05:44:02;;;;;;;26.07;7.27;;;8.50;99.90;;;;;;4915525;29;20472;-61
2021/11/08 05:46:30;;;;;;;23.40;6.67;;;8.50;99.90;;;;;;4917293;29;20512;-60
2021/11/08 05:48:58;;;;;;;23.60;6.60;;;8.50;99.90;;;;;;4919520;29;20861;-60
2021/11/08 05:51:28;;;;;;;21.90;7.20;;;8.50;99.90;;;;;;4918952;29;20543;-60
2021/11/08 05:53:57;;;;;;;20.37;6.97;;;8.50;99.90;;;;;;4919509;29;20485;-61
2021/11/08 05:56:30;;;;;;;23.73;8.53;;;8.50;99.90;;;;;;4918802;29;21023;-61
2021/11/08 05:59:20;;;;;;;19.87;6.77;;;8.40;99.90;;;;;;4919279;29;20924;-61
2021/11/08 06:49:19;;;;;;;19.98;7.53;;;8.40;99.90;;;;;;4918471;29;20433;-60
2021/11/08 06:51:50;;;;;;;25.70;6.80;;;8.50;99.90;;;;;;4921253;29;20236;-60
2021/11/08 06:54:19;;;;;;;16.40;6.97;;;8.40;99.90;;;;;;4951826;29;20504;-61
2021/11/08 06:56:51;;;;;;;13.50;6.47;;;8.40;99.90;;;;;;4924517;28;20303;-60
2021/11/08 06:59:24;;;;;;;19.80;9.10;;;8.40;99.90;;;;;;4932013;29;20462;-61
2021/11/08 07:01:54;;;;;;;15.17;5.97;;;8.50;99.90;;;;;;4935446;29;20496;-61
2021/11/08 07:04:23;;;;;;;18.13;7.30;;;8.50;99.90;;;;;;4936999;29;20519;-61
2021/11/08 07:06:52;;;;;;;17.13;6.17;;;8.50;99.90;;;;;;4918130;29;20520;-61
2021/11/08 07:09:21;;;;;;;13.70;5.93;;;8.50;99.90;;;;;;4935420;29;20508;-61
2021/11/08 07:11:51;;;;;;;16.30;7.53;;;8.50;99.90;;;;;;4938746;29;20481;-61
2021/11/08 07:14:20;;;;;;;22.73;7.30;;;8.50;99.90;;;;;;4930198;29;21046;-60
2021/11/08 07:16:49;;;;;;;17.77;7.00;;;8.50;99.90;;;;;;4936290;29;20538;-60
2021/11/08 07:19:18;;;;;;;14.33;6.30;;;8.60;99.90;;;;;;4936760;29;20440;-61
2021/11/08 07:21:46;;;;;;;31.10;8.03;;;8.60;99.90;;;;;;4919003;29;20472;-62
2021/11/08 07:24:15;;;;;;;17.13;6.77;;;8.60;99.90;;;;;;4917583;29;20441;-60
2021/11/08 07:26:44;;;;;;;14.53;8.43;;;8.60;99.90;;;;;;4926840;29;20907;-61
2021/11/08 07:29:14;;;;;;;20.00;6.27;;;8.60;99.90;;;;;;4935380;29;20437;-61
2021/11/08 07:31:44;;;;;;;17.37;6.33;;;8.70;99.90;;;;;;4936288;29;20472;-61
2021/11/08 07:34:13;;;;;;;20.83;6.70;;;8.70;99.90;;;;;;4935691;29;20915;-61
2021/11/08 07:36:41;;;;;;;19.00;6.27;;;8.70;99.90;;;;;;4917247;29;20469;-60
2021/11/08 07:39:10;;;;;;;18.93;6.73;;;8.70;99.90;;;;;;4917777;29;20470;-61
2021/11/08 07:41:39;;;;;;;20.73;8.47;;;8.80;99.90;;;;;;4917321;29;20560;-61
2021/11/08 07:44:09;;;;;;;23.10;6.87;;;8.80;99.90;;;;;;4916229;29;20417;-61
2021/11/08 07:46:37;;;;;;;20.70;6.47;;;8.80;99.90;;;;;;4916831;29;20477;-61
2021/11/08 07:49:07;;;;;;;16.87;7.43;;;8.80;99.90;;;;;;4917356;29;20856;-61
2021/11/08 07:51:35;;;;;;;19.70;7.67;;;8.80;99.90;;;;;;4916844;29;20512;-61
2021/11/08 07:54:03;;;;;;;25.03;8.40;;;8.80;99.90;;;;;;4917025;29;20421;-60
2021/11/08 07:56:32;;;;;;;26.87;7.57;;;8.90;99.90;;;;;;4925517;29;20547;-60
2021/11/08 07:59:00;;;;;;;22.67;8.27;;;9.00;99.90;;;;;;4935099;29;20433;-60
2021/11/08 08:01:28;;;;;;;23.97;8.87;;;9.00;99.90;;;;;;4935307;29;20476;-61
2021/11/08 08:03:57;;;;;;;23.83;8.60;;;9.10;99.90;;;;;;4946460;29;20499;-61
2021/11/08 08:06:26;;;;;;;26.23;9.17;;;9.00;99.90;;;;;;4916438;29;20914;-60
2021/11/08 08:08:54;;;;;;;24.57;7.13;;;9.00;99.90;;;;;;4923551;29;20455;-60
2021/11/08 08:11:23;;;;;;;16.20;6.60;;;9.00;99.90;;;;;;4926352;29;20477;-60
2021/11/08 08:13:52;;;;;;;22.17;7.20;;;9.00;99.90;;;;;;4916882;29;20435;-61
2021/11/08 08:16:21;;;;;;;31.67;8.07;;;9.00;99.90;;;;;;4914941;29;20553;-60
2021/11/08 08:18:51;;;;;;;21.37;7.37;;;9.00;99.90;;;;;;4916545;29;20449;-60
2021/11/08 08:21:21;;;;;;;18.93;7.80;;;9.00;99.90;;;;;;4924960;29;20524;-60
2021/11/08 08:23:57;;;;;;;22.53;7.23;;;9.00;99.90;;;;;;4935774;29;20429;-61
2021/11/08 08:26:28;;;;;;;17.20;7.00;;;9.00;99.90;;;;;;4933923;29;20889;-61
2021/11/08 08:28:59;;;;;;;21.33;7.53;;;9.10;99.90;;;;;;4935655;29;20491;-61
2021/11/08 08:31:28;;;;;;;18.07;7.40;;;9.10;99.90;;;;;;4918170;29;20566;-61
2021/11/08 08:33:56;;;;;;;20.20;7.20;;;9.20;99.90;;;;;;4914325;29;20445;-60
2021/11/08 08:36:25;;;;;;;19.87;7.40;;;9.20;99.90;;;;;;4916012;29;20481;-61
2021/11/08 08:38:55;;;;;;;21.40;8.00;;;9.20;99.90;;;;;;4916594;29;20444;-61
2021/11/08 08:41:23;;;;;;;19.70;7.87;;;9.20;99.90;;;;;;4915554;29;20833;-63
2021/11/08 08:43:52;;;;;;;14.73;6.13;;;9.30;99.90;;;;;;4916271;29;20426;-61
2021/11/08 08:46:20;;;;;;;26.40;7.00;;;9.30;99.90;;;;;;4915347;29;20489;-62
2021/11/08 08:48:50;;;;;;;19.63;5.83;;;9.30;99.90;;;;;;4916327;29;20429;-63
2021/11/08 08:51:19;;;;;;;20.40;6.63;;;9.30;99.90;;;;;;4915883;29;20465;-62
2021/11/08 08:53:47;;;;;;;14.63;7.20;;;9.30;99.90;;;;;;4916190;29;20448;-62
2021/11/08 08:56:23;;;;;;;19.70;7.77;;;9.40;99.90;;;;;;4924497;28;20918;-62
2021/11/08 08:58:52;;;;;;;17.00;7.50;;;9.40;99.90;;;;;;4911047;28;20460;-62
2021/11/08 09:01:20;;;;;;;23.17;8.43;;;9.50;99.90;;;;;;4935179;29;20473;-62
2021/11/08 09:03:48;;;;;;;18.70;6.80;;;9.60;99.90;;;;;;4927436;29;20465;-62
2021/11/08 09:06:17;;;;;;;14.53;6.13;;;9.60;99.90;;;;;;4934550;29;20448;-63
2021/11/08 09:08:45;;;;;;;16.73;6.80;;;9.70;99.90;;;;;;4917513;29;20555;-62
2021/11/08 09:11:14;;;;;;;15.87;6.03;;;9.80;99.90;;;;;;4928051;29;20446;-62
2021/11/08 09:13:45;;;;;;;20.57;7.13;;;9.80;99.90;;;;;;4918526;29;20488;-62
2021/11/08 09:16:14;;;;;;;20.33;7.37;;;9.90;99.90;;;;;;4916389;29;20916;-62
2021/11/08 09:18:44;;;;;;;17.13;6.20;;;9.90;99.90;;;;;;4914231;29;20477;-62
2021/11/08 09:21:13;;;;;;;19.57;7.20;;;10.00;99.90;;;;;;4921955;29;20500;-63
2021/11/08 09:23:42;;;;;;;16.27;6.17;;;10.00;99.90;;;;;;4915173;29;20475;-62
2021/11/08 09:26:11;;;;;;;20.10;7.23;;;10.00;99.90;;;;;;4927337;29;20469;-62
2021/11/08 09:28:39;;;;;;;21.43;6.60;;;10.10;99.90;;;;;;4898437;29;20458;-62
2021/11/08 09:31:10;;;;;;;24.30;8.00;;;10.00;99.90;;;;;;4929925;29;20471;-62
2021/11/08 09:33:42;;;;;;;21.83;6.97;;;10.00;99.90;;;;;;4932935;29;20471;-62
2021/11/08 09:36:13;;;;;;;15.90;6.87;;;9.90;99.90;;;;;;4915335;29;20453;-63
2021/11/08 09:38:49;;;;;;;30.60;7.20;;;9.90;99.90;;;;;;4925191;29;20884;-63
2021/11/08 09:41:19;;;;;;;20.27;7.37;;;10.00;99.90;;;;;;4926742;29;20817;-61
2021/11/08 09:43:51;;;;;;;23.73;7.20;;;10.10;99.90;;;;;;4915256;29;20480;-62
2021/11/08 09:46:22;;;;;;;19.63;7.30;;;10.10;99.90;;;;;;4915406;29;20485;-63
2021/11/08 09:48:52;;;;;;;19.57;8.47;;;10.10;99.90;;;;;;4915400;29;20916;-61
2021/11/08 09:51:21;;;;;;;26.87;7.53;;;10.10;99.90;;;;;;4913928;29;20454;-61
2021/11/08 09:53:50;;;;;;;25.27;7.13;;;10.10;99.90;;;;;;4915018;29;20880;-62
2021/11/08 09:56:18;;;;;;;24.23;6.90;;;10.20;99.90;;;;;;4915342;29;20461;-61
2021/11/08 09:58:47;;;;;;;16.20;6.07;;;10.30;99.90;;;;;;4933879;29;20495;-61
2021/11/08 10:01:31;;;;;;;15.50;6.47;;;10.30;99.90;;;;;;4934319;29;20491;-61
2021/11/08 10:04:00;;;;;;;25.30;6.70;;;10.50;99.90;;;;;;4925201;29;20836;-60
2021/11/08 10:06:28;;;;;;;20.67;6.47;;;10.60;99.90;;;;;;4898432;29;20466;-60
2021/11/08 10:08:56;;;;;;;20.37;7.53;;;10.80;99.90;;;;;;4914812;29;20749;-60
2021/11/08 10:11:25;;;;;;;14.67;6.70;;;11.00;99.90;;;;;;4898285;29;21060;-60
2021/11/08 10:13:55;;;;;;;18.67;7.40;;;11.10;99.90;;;;;;4914690;29;20474;-61
2021/11/08 10:16:28;;;;;;;19.30;6.93;;;11.20;99.90;;;;;;4915060;29;20514;-61
2021/11/08 10:18:59;;;;;;;20.33;7.83;;;11.30;99.90;;;;;;4914703;29;20470;-61
2021/11/08 10:21:30;;;;;;;17.10;7.30;;;11.40;99.90;;;;;;4914073;29;20474;-60
2021/11/08 10:24:02;;;;;;;21.10;7.60;;;11.50;99.90;;;;;;4913521;29;20478;-61
2021/11/08 10:26:34;;;;;;;24.53;8.30;;;11.50;99.90;;;;;;4913809;29;20512;-60
2021/11/08 10:29:05;;;;;;;23.07;9.43;;;11.40;99.90;;;;;;4914974;29;20469;-61
2021/11/08 10:31:37;;;;;;;17.53;7.80;;;11.30;99.90;;;;;;4914016;29;20932;-61
2021/11/08 10:34:08;;;;;;;25.03;8.30;;;11.00;99.90;;;;;;4917557;29;20479;-60
2021/11/08 10:36:36;;;;;;;19.83;8.23;;;10.90;99.90;;;;;;4918790;29;20473;-60
2021/11/08 10:39:07;;;;;;;25.87;8.67;;;10.90;99.90;;;;;;4917000;29;20465;-61
2021/11/08 10:41:39;;;;;;;39.00;9.90;;;10.80;99.90;;;;;;4918431;29;20511;-60
2021/11/08 10:44:11;;;;;;;24.67;10.10;;;10.70;99.90;;;;;;4917906;29;20458;-61
2021/11/08 10:46:43;;;;;;;22.80;9.00;;;10.70;99.90;;;;;;4918718;29;20500;-61
2021/11/08 10:49:14;;;;;;;24.23;12.73;;;10.70;99.90;;;;;;4918308;29;20539;-61
2021/11/08 10:51:45;;;;;;;22.73;10.30;;;10.80;99.90;;;;;;4919723;29;20426;-61
2021/11/08 10:54:16;;;;;;;26.80;8.80;;;10.80;99.90;;;;;;4919826;29;20460;-61
2021/11/08 10:56:47;;;;;;;30.50;8.30;;;11.00;99.90;;;;;;4922006;29;20476;-61
2021/11/08 10:59:16;;;;;;;19.60;7.40;;;11.10;99.90;;;;;;4936534;29;20477;-61
2021/11/08 11:01:48;;;;;;;25.33;7.80;;;11.20;99.90;;;;;;4937023;29;20535;-60
2021/11/08 11:04:19;;;;;;;23.77;7.50;;;11.30;99.90;;;;;;4936916;29;20489;-61
2021/11/08 11:06:50;;;;;;;16.83;6.50;;;11.40;99.90;;;;;;4937024;29;21014;-62
2021/11/08 11:09:21;;;;;;;27.33;6.90;;;11.50;99.90;;;;;;4919678;29;20464;-60
2021/11/08 11:12:03;;;;;;;19.13;5.97;;;11.50;99.90;;;;;;4925533;29;20451;-59
2021/11/08 11:14:34;;;;;;;21.10;7.00;;;11.40;99.90;;;;;;4917129;29;20514;-60
2021/11/08 11:17:08;;;;;;;18.80;5.87;;;11.50;99.90;;;;;;4920871;29;20528;-60
2021/11/08 11:19:38;;;;;;;20.57;6.97;;;11.60;99.90;;;;;;4935457;28;20922;-60
2021/11/08 11:22:13;;;;;;;22.83;6.67;;;11.60;99.90;;;;;;4936778;29;20549;-59
2021/11/08 11:24:45;;;;;;;11.90;5.90;;;11.60;99.90;;;;;;4935615;29;20473;-60
2021/11/08 11:27:17;;;;;;;16.80;6.23;;;11.70;99.90;;;;;;4921330;29;20849;-60
2021/11/08 11:29:46;;;;;;;12.77;5.80;;;11.80;99.90;;;;;;4917193;29;20476;-60
2021/11/08 11:32:24;;;;;;;15.77;5.23;;;11.90;99.90;;;;;;4900719;29;20441;-59
2021/11/08 11:34:53;;;;;;;14.03;5.23;;;12.10;99.90;;;;;;4916776;29;20491;-60
2021/11/08 11:37:23;;;;;;;16.63;6.60;;;12.40;99.90;;;;;;4917206;29;20452;-60
2021/11/08 11:40:05;;;;;;;16.47;6.20;;;12.50;99.90;;;;;;4916619;29;20473;-60
2021/11/08 11:42:33;;;;;;;16.43;7.50;;;12.30;99.90;;;;;;4900810;29;20517;-60
2021/11/08 11:45:04;;;;;;;14.97;6.10;;;12.20;99.90;;;;;;4899463;29;20596;-60
2021/11/08 11:47:34;;;;;;;17.00;6.80;;;12.10;99.90;;;;;;4917515;29;20430;-60
2021/11/08 11:50:02;;;;;;;14.40;5.70;;;11.90;99.90;;;;;;4917961;29;20478;-59
2021/11/08 11:52:32;;;;;;;21.23;7.57;;;11.70;99.90;;;;;;4917704;29;20783;-61
2021/11/08 11:55:00;;;;;;;18.77;7.47;;;11.50;99.90;;;;;;4915381;29;20470;-61
2021/11/08 11:57:29;;;;;;;17.63;4.80;;;11.30;99.90;;;;;;4916956;29;20549;-60
2021/11/08 11:59:57;;;;;;;14.37;7.60;;;11.10;99.90;;;;;;4915534;29;20533;-61
2021/11/08 12:02:26;;;;;;;21.80;6.57;;;11.00;99.90;;;;;;4917066;29;20466;-61
2021/11/08 12:04:56;;;;;;;22.70;6.70;;;11.00;99.90;;;;;;4916225;29;20548;-61
2021/11/08 12:07:24;;;;;;;23.17;6.37;;;10.80;99.90;;;;;;4915741;29;20434;-60
2021/11/08 12:09:53;;;;;;;15.80;5.43;;;10.80;99.90;;;;;;4916749;29;20883;-61
2021/11/08 12:12:26;;;;;;;21.20;6.07;;;10.80;99.90;;;;;;4919459;29;20478;-60
2021/11/08 12:15:05;;;;;;;17.10;6.10;;;10.80;99.90;;;;;;4916327;29;20892;-61
2021/11/08 12:17:38;;;;;;;17.53;5.50;;;10.70;99.90;;;;;;4916734;29;20460;-61
2021/11/08 12:20:11;;;;;;;17.90;5.80;;;10.70;99.90;;;;;;4916645;29;20478;-60
2021/11/08 12:22:41;;;;;;;17.47;5.83;;;10.70;99.90;;;;;;4916780;29;20461;-61
2021/11/08 12:25:12;;;;;;;15.43;5.67;;;10.70;99.90;;;;;;4915917;29;20476;-61
2021/11/08 12:27:42;;;;;;;17.23;5.40;;;10.70;99.90;;;;;;4916739;29;20472;-61
2021/11/08 12:30:13;;;;;;;17.67;5.17;;;10.70;99.90;;;;;;4916194;29;20457;-61
2021/11/08 12:32:43;;;;;;;12.90;5.07;;;10.80;99.90;;;;;;4916843;29;20437;-60
2021/11/08 12:35:25;;;;;;;21.77;5.17;;;10.80;99.90;;;;;;4916066;29;20517;-61
2021/11/08 12:37:54;;;;;;;14.70;5.03;;;10.80;99.90;;;;;;4919635;29;20437;-60
2021/11/08 12:40:28;;;;;;;13.80;5.73;;;10.90;99.90;;;;;;4916198;29;20521;-60
2021/11/08 12:42:56;;;;;;;12.70;5.67;;;10.90;99.90;;;;;;4916548;29;20889;-61
2021/11/08 12:45:28;;;;;;;18.00;5.60;;;10.90;99.90;;;;;;4915733;29;20524;-60
2021/11/08 12:48:06;;;;;;;11.40;4.80;;;11.00;99.90;;;;;;4915252;29;20454;-61
2021/11/08 12:50:39;;;;;;;21.57;5.67;;;11.00;99.90;;;;;;4916244;29;20470;-61
2021/11/08 12:53:26;;;;;;;20.00;6.07;;;10.80;99.90;;;;;;4915611;29;20485;-60
2021/11/08 12:55:56;;;;;;;15.40;5.53;;;10.80;99.90;;;;;;4915566;29;20979;-61
2021/11/08 12:58:34;;;;;;;13.37;5.90;;;10.90;99.90;;;;;;4917995;29;20563;-60
2021/11/08 13:01:04;;;;;;;13.50;5.57;;;11.10;99.90;;;;;;4935098;29;20441;-60
2021/11/08 13:03:38;;;;;;;21.17;7.03;;;11.20;99.90;;;;;;4932406;29;20482;-60
2021/11/08 13:06:09;;;;;;;17.23;7.40;;;11.20;99.90;;;;;;4931228;29;20946;-60
2021/11/08 13:08:37;;;;;;;12.70;6.07;;;11.30;99.90;;;;;;4934603;29;21036;-60
2021/11/08 13:11:11;;;;;;;14.97;5.83;;;11.30;99.90;;;;;;4928987;29;20438;-60
2021/11/08 13:13:42;;;;;;;19.30;6.07;;;11.30;99.90;;;;;;4915318;29;20561;-60
2021/11/08 13:16:12;;;;;;;12.53;5.07;;;11.30;99.90;;;;;;4915940;29;20455;-61
2021/11/08 13:18:42;;;;;;;18.67;4.80;;;11.20;99.90;;;;;;4933528;29;20572;-60
2021/11/08 13:21:21;;;;;;;11.53;3.97;;;11.30;99.90;;;;;;4916608;29;20447;-60
2021/11/08 13:23:55;;;;;;;11.50;4.20;;;11.20;99.90;;;;;;4915281;29;21035;-60
2021/11/08 13:26:24;;;;;;;14.30;4.90;;;11.20;99.90;;;;;;4915676;29;20530;-61
2021/11/08 13:28:52;;;;;;;11.80;4.57;;;11.20;99.90;;;;;;4922017;29;20492;-60
2021/11/08 13:31:21;;;;;;;10.33;4.20;;;11.30;99.90;;;;;;4915791;29;20438;-61
2021/11/08 13:33:53;;;;;;;12.93;4.63;;;11.20;99.90;;;;;;4897879;29;20955;-60
2021/11/08 13:36:23;;;;;;;10.80;3.70;;;11.30;99.90;;;;;;4915534;29;20449;-61
2021/11/08 13:38:55;;;;;;;13.00;5.07;;;11.40;99.90;;;;;;4926200;29;20473;-60
2021/11/08 13:41:26;;;;;;;20.90;5.57;;;11.50;99.90;;;;;;4934013;29;20440;-62
2021/11/08 13:43:58;;;;;;;13.13;4.50;;;11.40;99.90;;;;;;4933961;29;21042;-61
2021/11/08 13:46:30;;;;;;;14.17;4.93;;;11.30;99.90;;;;;;4934560;29;20496;-60
2021/11/08 13:49:00;;;;;;;14.93;5.20;;;11.40;99.90;;;;;;4933815;29;20882;-61
2021/11/08 13:51:33;;;;;;;12.70;4.13;;;11.50;99.90;;;;;;4934083;29;20444;-61
2021/11/08 13:54:03;;;;;;;17.90;6.87;;;11.60;99.90;;;;;;4933663;29;20466;-61
2021/11/08 13:56:34;;;;;;;11.20;3.90;;;11.50;99.90;;;;;;4924704;29;20469;-60
2021/11/08 13:59:06;;;;;;;12.63;5.13;;;11.50;99.90;;;;;;4914885;29;20496;-61
2021/11/08 14:01:37;;;;;;;14.13;6.30;;;11.60;99.90;;;;;;4898435;29;20450;-60
2021/11/08 14:04:07;;;;;;;13.97;4.67;;;11.60;99.90;;;;;;4914504;29;20884;-62
2021/11/08 14:06:38;;;;;;;14.70;5.60;;;11.60;99.90;;;;;;4914894;29;20456;-61
2021/11/08 14:09:09;;;;;;;10.70;4.07;;;11.50;99.90;;;;;;4932985;29;20460;-61
2021/11/08 14:11:40;;;;;;;18.10;5.13;;;11.50;99.90;;;;;;4927677;29;20454;-60
2021/11/08 14:14:10;;;;;;;17.37;4.80;;;11.50;99.90;;;;;;4916288;29;20480;-60
2021/11/08 14:16:41;;;;;;;13.63;3.90;;;11.40;99.90;;;;;;4902504;29;20440;-60